ADDS METAR Data INFO
IDs: Format: Raw Decoded Include TAF

Data at: 1306 UTC 19 Jul 2018

KMSV 191250Z 27004KT 20SM SKC 19/11 A3012
KMSV 191156Z AUTO 00000KT 10SM CLR A3015 RMK AO2 SLPNO 7//// 51013 FZRANO $
KMSV 191056Z AUTO 00000KT 10SM CLR A3014 RMK AO2 SLPNO FZRANO $
KMSV 191055Z 00000KT 20SM SKC 12/09 A3012
KMSV 190956Z AUTO 00000KT 10SM CLR A3013 RMK AO2 SLPNO FZRANO $
KMSV 190856Z AUTO 00000KT 10SM CLR A3011 RMK AO2 SLPNO 53010 FZRANO $
KMSV 190756Z AUTO 00000KT 10SM CLR A3009 RMK AO2 SLPNO FZRANO $
KMSV 190656Z AUTO 00000KT 10SM CLR A3009 RMK AO2 SLPNO FZRANO $
KMSV 190556Z AUTO 28004KT 10SM CLR A3008 RMK AO2 SLPNO 6//// 52006 FZRANO $
KMSV 190456Z AUTO 28004KT 10SM CLR A3007 RMK AO2 SLPNO FZRANO $
KMSV 190356Z AUTO 29005KT 10SM CLR A3007 RMK AO2 SLPNO FZRANO $
KMSV 190256Z AUTO 31005KT 10SM A3006 RMK AO2 SLPNO 6//// FZRANO $
KMSV 181256Z AUTO 10SM RMK AO2 SLPNO FZRANO $
KMSV 180956Z AUTO 34004KT 10SM CLR A2995 RMK AO2 SLPNO FZRANO $
KMSV 180856Z AUTO 28004KT 10SM CLR A2993 RMK AO2 SLPNO 53010 FZRANO $
KMSV 180756Z AUTO 28004KT 10SM CLR A2991 RMK AO2 SLPNO FZRANO $
KMSV 180656Z AUTO 28004KT 10SM CLR A2991 RMK AO2 SLPNO FZRANO $
KMSV 180556Z AUTO 30007KT 10SM CLR A2990 RMK AO2 SLPNO 6//// FZRANO $
KMSV 180456Z AUTO 31006KT 10SM CLR A2990 RMK AO2 SLPNO FZRANO $
KMSV 180356Z AUTO 28005KT 10SM A2991 RMK AO2 SLPNO FZRANO $